CYRJCYVO

Guest
Details From CYRJ - ROBERVAL
To CYVO - VAL D OR
Flight Number -
Tags generated
Created
Modified
Stats Distance 239 nm / 442 km
Max Altitude 28,900 ft / 8,809 m
Waypoints 4
Social Downloads 0
Likes 0
Share VATSIM

Download

Looking for another format? Having issues loading an existing format? Contact us
Advertisement - Login to hide

Notes

Basic altitude profile: - Ascent Rate: 2500ft/min - Ascent Speed: 250kts - Cruise Altitude: 35000ft - Cruise Speed: 420kts - Descent Rate: 1500ft/min - Descent Speed: 250kts Options: - Use NATs: yes - Use PACOTS: yes - Use low airways: yes - Use high airways: yes

Route

CYRJ YPP AR17 YVO CYVO

ID Type Via Altitude Latitude Longitude Leg Dist Tot Dist Heading (true) Name
O CYRJ APT - 0 ft / 0 m 48.52000˚ -72.26556˚ - 0 nm - ROBERVAL
YPP NDB - 28,900 ft / 8,809 m 47.88953˚ -74.67208˚ 103 nm 103 nm 249° / 248° PARENT NDB
YVO VOR AR17 (AWY-LO) 3,800 ft / 1,158 m 48.17528˚ -77.82028˚ 127 nm 231 nm 279° / 277° VAL-D'OR VOR-DME
O CYVO APT - 0 ft / 0 m 48.05329˚ -77.78266˚ 7 nm 238 nm 168° / 168° VAL D OR

Altitude Profile

Advertisement - Login to hide

Weather


0- 5 10 15 20 25 30 35+ Temperature / ° C

Clouds and Precipitation
Forecast for 2018-05-26 12:00 UTC. Updated 2 hours ago

Ground ~20,000 ft ~40,000 ft Winds

CYRJ

Details ICAO CYRJ (YRJ)
Name ROBERVAL
Region Canada
Timezone America/Montreal (UTC-4.0)
Stats Elevation 586 ft / 179 m (AMSL)
Location 48.520001° -72.265556°
Runways 1
Magnetic Variation 16.037° W

METAR

CYRJ 261200Z 32010KT 40SM SCT220 11/02 A2984 RMK CI4 SLP109

Decode

TAF

TAF CYRJ 261138Z 2612/2624 32008KT P6SM FEW100 BKN220 BECMG 2616/2618 03010KT RMK NXT FCST BY 261400Z

Decode

Departure Runways

ID Width Length Bearing (true) Bearing (mag) Surface Threshold Offset Overrun Length
16 150 ft / 46 m 5,096 ft / 1,553 m 142.69° 158.73° Asphalt 0 ft / 0 m 0 ft / 0 m
34 150 ft / 46 m 5,096 ft / 1,553 m 322.70° 338.74° Asphalt 0 ft / 0 m 0 ft / 0 m

CYVO

Details ICAO CYVO (YVO)
Name VAL D OR
Region Canada
Timezone America/Montreal (UTC-4.0)
Stats Elevation 1,107 ft / 337 m (AMSL)
Location 48.053286° -77.782659°
Runways 1
Magnetic Variation 12.833° W

METAR

CYVO 261200Z 03010KT 15SM FEW090 BKN170 BKN250 10/05 A2985 RMK AC2AC3CI2 SLP117

Decode

TAF

TAF CYVO 261138Z 2612/2624 02010KT P6SM FEW070 BKN170 RMK NXT FCST BY 261800Z

Decode

Destination Runways

ID Width Length Bearing (true) Bearing (mag) Surface Threshold Offset Overrun Length
18 150 ft / 46 m 10,003 ft / 3,049 m 169.14° 181.97° Asphalt 0 ft / 0 m 0 ft / 0 m
36 150 ft / 46 m 10,003 ft / 3,049 m 349.15° 1.98° Asphalt 0 ft / 0 m 0 ft / 0 m

Approach Navaids

Runway Type Ident Frequency Range Bearing (true) Bearing (mag) Slope Elevation
18 Localiser IVO 110.30 MHz 50 nm / 93 km 169.30° 182.14° - 1,107 ft / 337 m (AMSL)
18 Glidescope IVO 110.30 MHz 50 nm / 93 km 183.00° 195.83° 3.00° 1,107 ft / 337 m (AMSL)

Popular Alternatives